Pinehurst, Oregon
Current Conditions -  °F | °C
As of 4:53 AM on Wednesday 26 Nov 2014 (Local Time) from KSIY Reporting Station
Moderate Fog Moderate Fog  
Wind Chill: 30°   Ceiling: 200
Heat Index: 30°   Visibility: 0.25mi
Dew Point: 29°   Wind: 0mph
Humidity: 96%   Direction: NA
Pressure: 30.38"   Gusts: NA
Location:  42.11°N, 122.38°W
Report Text: KSIY 261253Z AUTO 00000KT 1/4SM FZFG VV002 M01/M02 A3038 RMK AO2 SLP313 I1001 T10111017
Loading
Personal Weather Stations






























Interactive Weather Map New forecast layout! Learn more

10-Day Weather Forecast

Advertisements
Track Severe Weather on mobile